createdAt,value
2023-02-08T00:00:20.780Z,61.79
2023-02-08T00:05:23.564Z,61.91
2023-02-08T00:10:26.300Z,61.79
2023-02-08T00:15:30.488Z,62.30
2023-02-08T00:20:33.242Z,62.28
2023-02-08T00:25:37.030Z,62.56
2023-02-08T00:30:42.144Z,62.76
2023-02-08T00:35:45.211Z,62.57
2023-02-08T00:40:47.971Z,62.11
2023-02-08T00:45:56.534Z,62.41
2023-02-08T00:51:02.310Z,62.20
2023-02-08T00:56:05.750Z,62.17
2023-02-08T01:01:10.719Z,61.99
2023-02-08T01:06:16.631Z,62.41
2023-02-08T01:11:25.085Z,62.26
2023-02-08T01:16:31.567Z,62.07
2023-02-08T01:21:38.595Z,61.99
2023-02-08T01:26:41.418Z,61.93
2023-02-08T01:31:46.380Z,61.79
2023-02-08T01:36:49.322Z,61.84
2023-02-08T01:41:52.096Z,61.85
2023-02-08T01:46:56.272Z,61.62
2023-02-08T01:52:02.650Z,61.46
2023-02-08T01:57:06.027Z,61.14
2023-02-08T02:02:14.654Z,61.07
2023-02-08T02:07:19.172Z,60.73
2023-02-08T02:12:22.641Z,60.57
2023-02-08T02:17:28.019Z,60.61
2023-02-08T02:22:59.689Z,60.93
2023-02-08T02:28:23.808Z,61.06
2023-02-08T02:33:55.540Z,61.09
2023-02-08T02:39:06.722Z,61.63
2023-02-08T02:44:19.778Z,61.69
2023-02-08T02:49:32.562Z,61.61
2023-02-08T02:54:40.829Z,61.69
2023-02-08T02:59:45.285Z,62.21
2023-02-08T03:04:52.839Z,61.79
2023-02-08T03:10:06.992Z,61.87
2023-02-08T03:15:23.559Z,62.35
2023-02-08T03:20:32.950Z,62.46
2023-02-08T03:25:45.570Z,62.49
2023-02-08T03:30:54.875Z,62.41
2023-02-08T03:36:04.528Z,62.29
2023-02-08T03:41:11.733Z,62.75
2023-02-08T03:46:18.583Z,62.97
2023-02-08T03:51:24.371Z,62.69
2023-02-08T03:56:36.589Z,62.66
2023-02-08T04:01:40.919Z,62.37
2023-02-08T04:06:45.140Z,61.87
2023-02-08T04:11:47.926Z,62.04
2023-02-08T04:16:50.772Z,61.73
2023-02-08T04:21:55.192Z,60.94
2023-02-08T04:26:57.936Z,60.93
2023-02-08T04:32:01.081Z,61.38
2023-02-08T04:37:05.243Z,61.19
2023-02-08T04:42:08.088Z,61.29
2023-02-08T04:47:10.895Z,61.52
2023-02-08T04:52:15.027Z,61.29
2023-02-08T04:57:17.814Z,61.82
2023-02-08T05:02:20.684Z,61.69
2023-02-08T05:07:25.263Z,62.01
2023-02-08T05:12:28.178Z,62.20
2023-02-08T05:17:30.952Z,61.89
2023-02-08T05:22:35.224Z,62.10
2023-02-08T05:27:38.507Z,62.22
2023-02-08T05:32:41.287Z,62.11
2023-02-08T05:37:45.426Z,61.81
2023-02-08T05:42:48.578Z,62.66
2023-02-08T05:47:51.365Z,62.24
2023-02-08T05:52:55.462Z,61.13
2023-02-08T05:57:58.218Z,60.49
2023-02-08T06:03:01.009Z,60.10
2023-02-08T06:08:05.499Z,60.15
2023-02-08T06:13:08.263Z,60.41
2023-02-08T06:18:11.746Z,60.31
2023-02-08T06:23:15.879Z,60.38
2023-02-08T06:28:18.827Z,60.17
2023-02-08T06:33:21.586Z,60.77
2023-02-08T06:38:25.727Z,60.54
2023-02-08T06:43:28.548Z,60.67
2023-02-08T06:48:31.367Z,60.66
2023-02-08T06:53:35.476Z,60.14
2023-02-08T06:58:38.758Z,60.30
2023-02-08T07:03:42.612Z,59.88
2023-02-08T07:08:47.215Z,60.12
2023-02-08T07:13:51.319Z,63.59
2023-02-08T07:18:54.090Z,63.33
2023-02-08T07:23:58.254Z,60.27
2023-02-08T07:29:01.249Z,57.63
2023-02-08T07:40:34.160Z,52.41
2023-02-08T07:45:38.550Z,52.89
2023-02-08T07:50:41.546Z,52.86
2023-02-08T07:55:47.780Z,53.00
2023-02-08T08:00:50.640Z,52.71
2023-02-08T08:05:55.013Z,51.25
2023-02-08T08:10:59.227Z,50.80
2023-02-08T08:16:01.967Z,50.02
2023-02-08T08:21:05.351Z,49.43
2023-02-08T08:26:13.838Z,48.06
2023-02-08T08:31:18.950Z,47.52
2023-02-08T08:36:21.788Z,46.85
2023-02-08T08:41:27.247Z,46.90
2023-02-08T08:46:30.058Z,46.60
2023-02-08T08:51:35.272Z,45.87
2023-02-08T08:56:39.426Z,46.08
2023-02-08T09:01:42.777Z,45.92
2023-02-08T09:06:45.594Z,44.78
2023-02-08T09:11:50.601Z,45.10
2023-02-08T09:16:53.720Z,44.98
2023-02-08T09:21:57.862Z,44.51
2023-02-08T09:27:02.199Z,44.83
2023-02-08T09:32:05.078Z,44.11
2023-02-08T09:37:07.856Z,43.12
2023-02-08T09:42:29.264Z,42.70
2023-02-08T09:47:36.313Z,41.96
2023-02-08T09:52:45.667Z,41.25
2023-02-08T09:57:53.016Z,41.00
2023-02-08T10:03:00.782Z,40.46
2023-02-08T10:08:03.646Z,40.85
2023-02-08T10:13:25.665Z,40.23
2023-02-08T10:18:45.044Z,40.00
2023-02-08T10:24:06.714Z,39.30
2023-02-08T10:29:26.796Z,39.16
2023-02-08T10:34:43.436Z,38.38
2023-02-08T10:39:47.398Z,37.74
2023-02-08T10:45:18.835Z,37.78
2023-02-08T10:50:35.267Z,36.00
2023-02-08T10:55:44.763Z,35.43
2023-02-08T11:00:51.820Z,34.47
2023-02-08T11:05:55.456Z,32.51
2023-02-08T11:11:00.931Z,31.41
2023-02-08T11:16:07.150Z,30.05
2023-02-08T11:21:21.805Z,29.23
2023-02-08T11:26:33.366Z,28.29
2023-02-08T11:31:37.528Z,27.26
2023-02-08T11:36:47.775Z,27.51
2023-02-08T11:41:55.161Z,28.30
2023-02-08T11:47:02.635Z,27.24
2023-02-08T11:52:06.869Z,26.57
2023-02-08T11:57:15.963Z,26.49
2023-02-08T12:02:36.933Z,27.23
2023-02-08T12:07:50.328Z,26.73
2023-02-08T12:13:22.719Z,26.59
2023-02-08T12:18:40.355Z,25.07
2023-02-08T12:23:50.249Z,25.50
2023-02-08T12:29:16.226Z,25.08
2023-02-08T12:34:26.686Z,25.10
2023-02-08T12:39:58.051Z,25.84
2023-02-08T12:45:32.696Z,27.71
2023-02-08T12:50:43.018Z,29.17
2023-02-08T12:55:49.883Z,28.83
2023-02-08T13:00:54.512Z,28.92
2023-02-08T13:06:02.421Z,29.03
2023-02-08T13:11:19.831Z,28.79
2023-02-08T13:16:26.217Z,29.17
2023-02-08T13:21:37.847Z,29.58
2023-02-08T13:26:41.822Z,30.03
2023-02-08T13:31:49.560Z,30.29
2023-02-08T13:36:57.340Z,30.21
2023-02-08T13:42:01.259Z,29.46
2023-02-08T13:47:05.863Z,29.55
2023-02-08T13:52:10.456Z,29.92
2023-02-08T13:57:51.243Z,28.57
2023-02-08T14:03:01.179Z,29.33
2023-02-08T14:08:08.276Z,29.85
2023-02-08T14:13:29.690Z,29.92
2023-02-08T14:18:32.583Z,29.76
2023-02-08T14:23:40.679Z,29.49
2023-02-08T14:28:48.759Z,29.11
2023-02-08T14:33:55.004Z,28.80
2023-02-08T14:39:26.181Z,28.85
2023-02-08T14:44:59.937Z,29.46
2023-02-08T14:50:06.695Z,29.69
2023-02-08T14:55:17.485Z,29.80
2023-02-08T15:00:25.426Z,30.64
2023-02-08T15:05:30.160Z,30.61
2023-02-08T15:10:35.144Z,31.18
2023-02-08T15:15:41.734Z,31.43
2023-02-08T15:20:45.194Z,32.03
2023-02-08T15:26:00.305Z,32.27
2023-02-08T15:31:06.127Z,32.61
2023-02-08T15:36:16.261Z,32.84
2023-02-08T15:41:28.244Z,33.32
2023-02-08T15:46:32.451Z,33.60
2023-02-08T15:51:35.373Z,34.14
2023-02-08T15:56:42.375Z,35.39
2023-02-08T16:01:47.769Z,35.81
2023-02-08T16:06:53.286Z,36.33
2023-02-08T16:12:00.340Z,36.74
2023-02-08T16:17:04.288Z,37.27
2023-02-08T16:22:26.539Z,38.35
2023-02-08T16:27:33.728Z,38.54
2023-02-08T16:32:39.666Z,38.69
2023-02-08T16:37:43.296Z,39.16
2023-02-08T16:42:47.533Z,39.46
2023-02-08T16:47:53.119Z,39.24
2023-02-08T16:53:00.205Z,39.59
2023-02-08T16:58:04.398Z,39.46
2023-02-08T17:03:07.205Z,39.92
2023-02-08T17:08:20.796Z,40.38
2023-02-08T17:13:27.004Z,40.42
2023-02-08T17:18:32.705Z,40.46
2023-02-08T17:23:38.008Z,40.62
2023-02-08T17:28:42.893Z,40.80
2023-02-08T17:33:45.987Z,40.94
2023-02-08T17:38:49.046Z,40.97
2023-02-08T17:43:54.830Z,41.34
2023-02-08T17:49:00.532Z,41.40
2023-02-08T17:54:04.854Z,41.74
2023-02-08T17:59:09.060Z,42.27
2023-02-08T18:04:13.264Z,42.48
2023-02-08T18:09:16.045Z,42.75
2023-02-08T18:14:20.328Z,42.83
2023-02-08T18:19:23.382Z,43.19
2023-02-08T18:24:26.191Z,43.54
2023-02-08T18:29:30.439Z,43.60
2023-02-08T18:39:36.445Z,44.15
2023-02-08T18:44:40.783Z,44.49
2023-02-08T18:49:43.655Z,44.85
2023-02-08T18:54:46.516Z,45.05
2023-02-08T18:59:50.847Z,45.73
2023-02-08T19:04:53.579Z,45.58
2023-02-08T19:09:56.378Z,46.19
2023-02-08T19:15:00.748Z,46.10
2023-02-08T19:20:03.978Z,45.90
2023-02-08T19:25:07.647Z,45.67
2023-02-08T19:30:15.594Z,45.99
2023-02-08T19:35:19.610Z,45.89
2023-02-08T19:40:24.187Z,46.31
2023-02-08T19:45:28.399Z,46.56
2023-02-08T19:50:31.211Z,46.91
2023-02-08T19:55:33.984Z,47.17
2023-02-08T20:00:38.115Z,47.27
2023-02-08T20:05:41.039Z,47.47
2023-02-08T20:10:45.811Z,47.64
2023-02-08T20:15:50.516Z,47.85
2023-02-08T20:21:01.098Z,47.67
2023-02-08T20:26:06.409Z,47.42
2023-02-08T20:31:12.541Z,47.79
2023-02-08T20:36:17.557Z,47.98
2023-02-08T20:41:21.619Z,48.47
2023-02-08T20:46:28.067Z,48.10
2023-02-08T20:51:31.352Z,47.86
2023-02-08T20:56:36.092Z,47.66
2023-02-08T21:01:40.298Z,47.74
2023-02-08T21:06:45.811Z,47.96
2023-02-08T21:11:48.997Z,48.26
2023-02-08T21:16:56.189Z,48.11
2023-02-08T21:22:01.338Z,48.63
2023-02-08T21:27:04.116Z,48.50
2023-02-08T21:32:08.307Z,48.54
2023-02-08T21:37:11.120Z,48.85
2023-02-08T21:42:13.926Z,48.85
2023-02-08T21:47:17.968Z,48.88
2023-02-08T21:52:38.397Z,49.36
2023-02-08T21:57:41.083Z,49.84
2023-02-08T22:02:45.182Z,50.09
2023-02-08T22:07:50.257Z,50.37
2023-02-08T22:12:54.989Z,50.52
2023-02-08T22:18:03.336Z,50.71
2023-02-08T22:23:06.272Z,50.85
2023-02-08T22:28:09.000Z,51.41
2023-02-08T22:33:13.081Z,51.13
2023-02-08T22:38:15.800Z,51.43
2023-02-08T22:43:18.577Z,51.42
2023-02-08T22:48:22.660Z,51.55
2023-02-08T22:53:25.499Z,51.92
2023-02-08T22:58:28.389Z,51.92
2023-02-08T23:03:32.939Z,52.59
2023-02-08T23:08:36.586Z,52.57
2023-02-08T23:13:39.766Z,53.02
2023-02-08T23:18:44.377Z,52.46
2023-02-08T23:23:49.324Z,52.57
2023-02-08T23:28:53.198Z,52.38
2023-02-08T23:33:57.314Z,52.76
2023-02-08T23:39:01.470Z,52.79
2023-02-08T23:44:04.712Z,53.00
2023-02-08T23:49:08.858Z,53.14
2023-02-08T23:54:11.590Z,53.62
2023-02-08T23:59:14.383Z,53.91
